Aeroporto :
LOGIN :

Iscrizione | Disclaimer

   EN    FR    IT 

 










Sommario :    VFR   VFR Marginale   IFR   IFR Intensivo   IFR Molto Intensivo
Visibilità : 
Base nubi : 
>= 8 km
>= 3000ft
5 / 8 km
1000 / 3000 ft
1500m / 5 km
500 / 1000 ft
800 / 1500m
200 / 500 ft
< 800m
< 200 ft
Simboli :   Temporali  Nebbia  Neve Forte  Precipitazioni Forti  Vento > 20 kt
SIGMETs :   Varie  Temporali  Ghiacco  Turbolenza  Onda orograficha  Ceneri Vulcaniche






- Altitudine del aeroporto : 257 ft
- Codice IATA : MAN


EGCC - Manchester

ULTIMO METAR :
  • 171150Z AUTO 23011KT 9999 BKN030 BKN037 08/04 Q1003 NOSIG

METARs OBSOLETI :
  • 171120Z AUTO 21010KT 170V240 9999 BKN028 08/05 Q1002
  • 171050Z AUTO 21011KT 9999 BKN028 BKN033 OVC042 08/05 Q1002 NOSIG
  • 171020Z AUTO 20010KT 9999 FEW018 BKN029 BKN034 08/05 Q1001 NOSIG
  • 170950Z AUTO 19010KT 140V230 9999 FEW018 SCT025 BKN034 06/04 Q1001 NOSIG
  • 170920Z AUTO 20009KT 9999 SCT017 OVC036 06/04 Q1000 NOSIG

TAF TAF EGCC
Valido dal 17 a 12 ore il 18 a 18 ore UTC


171100Z 1712/1818 20011KT 9999 SCT030
BECMG 1712/1715 26014KT
TEMPO 1712/1724 27017G27KT 7000 SHRA
BECMG 1803/1806 20012KT
PROB30
TEMPO 1806/1812 8000 SHRA
TEMPO 1812/1818 7000 SHRA
PROB30
TEMPO 1812/1818 23015G25KT 4000 +SHRA BKN014
ATIS : +44 161 499 2324



MetMap, La meteo Aeronautica in un colpo d'occhio ! - Copyright ORBIFLY Dicembre 2007 - Disclaimer

ORBIFLY MET'MAP TEAM :

Programmazione e sviluppo : Alexandra Zaïnal
Concezione : Baudouin d'Aumeries
Aiuto per la programmazione : Marc-Olivier Méhu
Supporto tecnico e logistico : Manuel Goepfert
Aiuto per la traduzione : Arnaldo La Scala

Contatto : metmap@orbifly.com




FONTI E CREDITI :

   NOAA